createdAt,value
2022-12-05T00:00:23.991Z,101396.38
2022-12-05T00:03:08.065Z,101352.91
2022-12-05T00:05:52.051Z,101385.03
2022-12-05T00:08:35.943Z,101394.59
2022-12-05T00:11:21.281Z,101398.97
2022-12-05T00:14:06.691Z,101387.63
2022-12-05T00:16:51.872Z,101394.53
2022-12-05T00:19:36.122Z,101395.44
2022-12-05T00:22:20.337Z,101416.38
2022-12-05T00:25:04.737Z,101347.66
2022-12-05T00:27:48.708Z,101391.13
2022-12-05T00:30:32.971Z,101399.78
2022-12-05T00:33:18.533Z,101326.00
2022-12-05T00:36:04.354Z,101379.00
2022-12-05T00:38:48.499Z,101398.09
2022-12-05T00:41:32.653Z,101299.06
2022-12-05T00:44:16.633Z,101383.25
2022-12-05T00:47:00.601Z,101344.19
2022-12-05T00:49:45.992Z,101382.38
2022-12-05T00:52:29.994Z,101327.59
2022-12-05T00:55:13.955Z,101392.81
2022-12-05T00:57:58.009Z,101389.34
2022-12-05T01:00:42.125Z,101335.47
2022-12-05T01:03:26.328Z,101302.50
2022-12-05T01:06:12.197Z,101386.75
2022-12-05T01:08:57.299Z,101378.03
2022-12-05T01:11:41.827Z,101363.25
2022-12-05T01:14:27.304Z,101330.22
2022-12-05T01:17:11.705Z,101375.44
2022-12-05T01:19:56.240Z,101343.38
2022-12-05T01:22:41.714Z,101362.41
2022-12-05T01:25:47.891Z,101377.19
2022-12-05T01:28:31.914Z,101396.44
2022-12-05T01:31:22.497Z,101332.78
2022-12-05T01:34:09.286Z,101372.84
2022-12-05T01:36:53.308Z,101364.94
2022-12-05T01:39:38.710Z,101351.09
2022-12-05T01:42:26.203Z,101323.28
2022-12-05T01:45:17.042Z,101305.00
2022-12-05T01:48:03.798Z,101356.19
2022-12-05T01:50:49.135Z,101318.91
2022-12-05T01:53:33.098Z,101338.91
2022-12-05T01:56:20.066Z,101253.78
2022-12-05T01:59:07.470Z,101305.84
2022-12-05T02:01:51.590Z,101287.59
2022-12-05T02:04:40.050Z,101307.59
2022-12-05T02:07:24.437Z,101344.06
2022-12-05T02:10:09.821Z,101326.63
2022-12-05T02:12:55.828Z,101304.16
2022-12-05T02:15:44.974Z,101326.72
2022-12-05T02:18:42.665Z,101280.66
2022-12-05T02:21:51.439Z,101319.72
2022-12-05T02:24:53.873Z,101273.69
2022-12-05T02:28:12.443Z,101314.38
2022-12-05T02:31:01.369Z,101311.84
2022-12-05T02:33:50.037Z,101323.97
2022-12-05T02:36:48.397Z,101330.13
2022-12-05T02:39:42.756Z,101330.13
2022-12-05T02:42:34.623Z,101294.56
2022-12-05T02:45:25.275Z,101291.06
2022-12-05T02:48:13.177Z,101295.38
2022-12-05T02:51:00.364Z,101317.97
2022-12-05T02:53:45.838Z,101345.69
2022-12-05T02:56:34.363Z,101306.56
2022-12-05T02:59:23.074Z,101309.34
2022-12-05T03:02:09.838Z,101312.78
2022-12-05T03:04:59.193Z,101315.38
2022-12-05T03:07:46.470Z,101338.72
2022-12-05T03:10:32.645Z,101344.00
2022-12-05T03:13:21.967Z,101318.00
2022-12-05T03:16:10.172Z,101380.59
2022-12-05T03:18:59.527Z,101349.19
2022-12-05T03:21:51.998Z,101346.63
2022-12-05T03:24:39.023Z,101355.38
2022-12-05T03:27:28.898Z,101300.63
2022-12-05T03:30:15.943Z,101310.22
2022-12-05T03:33:07.116Z,101350.13
2022-12-05T03:36:00.099Z,101303.22
2022-12-05T03:38:50.546Z,101339.56
2022-12-05T03:41:39.890Z,101315.38
2022-12-05T03:44:29.581Z,101345.81
2022-12-05T03:47:18.976Z,101303.28
2022-12-05T03:50:08.921Z,101351.94
2022-12-05T03:53:19.228Z,101305.91
2022-12-05T03:56:07.698Z,101335.44
2022-12-05T03:58:58.238Z,101354.50
2022-12-05T04:01:44.647Z,101349.28
2022-12-05T04:04:32.981Z,101348.44
2022-12-05T04:07:19.895Z,101340.56
2022-12-05T04:10:08.245Z,101349.28
2022-12-05T04:12:56.256Z,101349.28
2022-12-05T04:15:54.034Z,101353.69
2022-12-05T04:18:40.317Z,101361.38
2022-12-05T04:21:40.699Z,101352.75
2022-12-05T04:24:45.534Z,101371.91
2022-12-05T04:27:38.049Z,101362.25
2022-12-05T04:30:25.702Z,101359.72
2022-12-05T04:33:15.516Z,101374.47
2022-12-05T04:36:04.276Z,101383.94
2022-12-05T04:38:52.729Z,101373.53
2022-12-05T04:41:41.579Z,101390.78
2022-12-05T04:44:28.518Z,101385.47
2022-12-05T04:47:15.920Z,101375.25
2022-12-05T04:50:01.626Z,101375.34
2022-12-05T04:52:51.732Z,101354.59
2022-12-05T04:55:38.584Z,101366.75
2022-12-05T04:58:24.576Z,101329.28
2022-12-05T05:01:15.762Z,101345.00
2022-12-05T05:04:09.508Z,101340.63
2022-12-05T05:06:53.516Z,101340.56
2022-12-05T05:09:38.215Z,101343.31
2022-12-05T05:12:22.112Z,101394.56
2022-12-05T05:15:06.930Z,101385.78
2022-12-05T05:17:50.794Z,101373.66
2022-12-05T05:20:35.920Z,101389.25
2022-12-05T05:23:19.686Z,101378.78
2022-12-05T05:26:03.521Z,101386.63
2022-12-05T05:28:47.783Z,101356.28
2022-12-05T05:31:31.669Z,101373.69
2022-12-05T05:34:16.664Z,101392.88
2022-12-05T05:37:01.837Z,101395.50
2022-12-05T05:39:45.806Z,101382.34
2022-12-05T05:42:29.600Z,101381.50
2022-12-05T05:45:14.384Z,101387.50
2022-12-05T05:47:58.282Z,101386.69
2022-12-05T05:50:42.024Z,101391.94
2022-12-05T05:53:29.512Z,101385.78
2022-12-05T05:56:20.069Z,101380.56
2022-12-05T05:59:05.200Z,101371.06
2022-12-05T06:01:48.990Z,101348.44
2022-12-05T06:04:32.829Z,101389.25
2022-12-05T06:07:16.723Z,101394.53
2022-12-05T06:10:02.134Z,101388.34
2022-12-05T06:12:46.987Z,101394.50
2022-12-05T06:15:30.811Z,101388.41
2022-12-05T06:18:14.641Z,101371.94
2022-12-05T06:20:59.400Z,101401.38
2022-12-05T06:23:43.173Z,101352.72
2022-12-05T06:26:28.448Z,101410.19
2022-12-05T06:29:13.000Z,101349.25
2022-12-05T06:31:56.894Z,101347.59
2022-12-05T06:34:41.166Z,101413.66
2022-12-05T06:37:25.210Z,101367.53
2022-12-05T06:40:10.469Z,101354.44
2022-12-05T06:42:55.994Z,101416.09
2022-12-05T06:45:40.911Z,101421.41
2022-12-05T06:48:25.043Z,101409.94
2022-12-05T06:51:12.091Z,101414.31
2022-12-05T06:53:57.534Z,101416.88
2022-12-05T06:56:41.875Z,101416.00
2022-12-05T06:59:27.455Z,101416.81
2022-12-05T07:02:12.695Z,101435.16
2022-12-05T07:04:56.633Z,101405.69
2022-12-05T07:07:40.695Z,101412.63
2022-12-05T07:10:24.688Z,101433.41
2022-12-05T07:13:10.101Z,101432.53
2022-12-05T07:15:59.278Z,101386.50
2022-12-05T07:18:43.460Z,101369.91
2022-12-05T07:21:27.401Z,101427.22
2022-12-05T07:24:11.542Z,101389.03
2022-12-05T07:26:55.637Z,101389.69
2022-12-05T07:29:39.624Z,101424.47
2022-12-05T07:32:24.738Z,101416.41
2022-12-05T07:35:09.206Z,101420.13
2022-12-05T07:37:52.897Z,101426.09
2022-12-05T07:40:38.655Z,101420.03
2022-12-05T07:43:22.437Z,101443.72
2022-12-05T07:46:07.534Z,101423.44
2022-12-05T07:48:53.509Z,101432.31
2022-12-05T07:51:37.409Z,101432.19
2022-12-05T07:54:21.268Z,101431.16
2022-12-05T07:57:05.245Z,101427.63
2022-12-05T07:59:49.006Z,101424.22
2022-12-05T08:02:33.879Z,101454.66
2022-12-05T08:05:20.753Z,101445.00
2022-12-05T08:08:04.746Z,101437.19
2022-12-05T08:10:48.500Z,101429.47
2022-12-05T08:13:32.279Z,101438.91
2022-12-05T08:16:18.278Z,101440.59
2022-12-05T08:19:04.668Z,101431.09
2022-12-05T08:21:49.758Z,101437.94
2022-12-05T08:24:33.626Z,101440.28
2022-12-05T08:27:17.467Z,101437.69
2022-12-05T08:30:01.189Z,101433.91
2022-12-05T08:32:48.458Z,101436.59
2022-12-05T08:35:32.251Z,101434.13
2022-12-05T08:38:17.284Z,101430.75
2022-12-05T08:41:02.224Z,101414.31
2022-12-05T08:43:46.052Z,101424.34
2022-12-05T08:46:29.945Z,101451.53
2022-12-05T08:49:14.194Z,101421.66
2022-12-05T08:51:57.949Z,101427.78
2022-12-05T08:54:43.102Z,101431.50
2022-12-05T08:57:26.877Z,101427.03
2022-12-05T09:00:11.520Z,101431.22
2022-12-05T09:02:55.466Z,101418.78
2022-12-05T09:05:39.247Z,101417.03
2022-12-05T09:08:23.052Z,101417.19
2022-12-05T09:11:09.817Z,101428.97
2022-12-05T09:13:55.147Z,101421.47
2022-12-05T09:16:39.929Z,101422.34
2022-12-05T09:19:25.015Z,101413.53
2022-12-05T09:22:08.809Z,101419.16
2022-12-05T09:24:52.908Z,101414.06
2022-12-05T09:27:38.128Z,101424.38
2022-12-05T09:30:22.061Z,101419.22
2022-12-05T09:33:05.870Z,101406.00
2022-12-05T09:35:49.530Z,101417.16
2022-12-05T09:38:33.548Z,101411.53
2022-12-05T09:41:57.523Z,101275.25
2022-12-05T09:44:50.908Z,101414.19
2022-12-05T09:47:44.115Z,101406.91
2022-12-05T09:50:30.187Z,101410.63
2022-12-05T09:53:25.565Z,101417.50
2022-12-05T09:56:19.787Z,101413.19
2022-12-05T09:59:03.542Z,101404.03
2022-12-05T10:01:57.161Z,101412.34
2022-12-05T10:05:00.110Z,101425.97
2022-12-05T10:07:55.164Z,101414.66
2022-12-05T10:10:49.895Z,101417.38
2022-12-05T10:13:46.743Z,101405.94
2022-12-05T10:16:34.285Z,101407.91
2022-12-05T10:19:25.661Z,101397.81
2022-12-05T10:22:20.274Z,101381.22
2022-12-05T10:25:07.056Z,101393.25
2022-12-05T10:27:53.402Z,101399.53
2022-12-05T10:30:38.478Z,101373.44
2022-12-05T10:33:24.216Z,101383.13
2022-12-05T10:36:13.240Z,101388.84
2022-12-05T10:38:57.959Z,101388.59
2022-12-05T10:41:41.744Z,101384.25
2022-12-05T10:44:25.497Z,101363.13
2022-12-05T10:47:10.176Z,101353.13
2022-12-05T10:49:55.569Z,101382.41
2022-12-05T10:52:40.692Z,101374.72
2022-12-05T10:55:28.846Z,101259.53
2022-12-05T10:58:17.826Z,101368.56
2022-12-05T11:01:10.063Z,101363.91
2022-12-05T11:03:58.256Z,101368.25
2022-12-05T11:06:51.926Z,101358.38
2022-12-05T11:09:39.355Z,101360.56
2022-12-05T11:12:25.551Z,101346.38
2022-12-05T11:15:25.010Z,101349.50
2022-12-05T11:18:20.492Z,101347.31
2022-12-05T11:21:12.476Z,101310.81
2022-12-05T11:23:56.432Z,101333.97
2022-12-05T11:26:42.942Z,101345.94
2022-12-05T11:29:37.178Z,101335.56
2022-12-05T11:32:22.891Z,101308.25
2022-12-05T11:35:19.694Z,101297.19
2022-12-05T11:38:05.300Z,101297.91
2022-12-05T11:40:55.108Z,101282.28
2022-12-05T11:43:54.281Z,101299.94
2022-12-05T11:46:49.837Z,101339.13
2022-12-05T11:49:46.285Z,101267.75
2022-12-05T11:52:41.009Z,101322.44
2022-12-05T11:55:31.964Z,101304.84
2022-12-05T11:58:46.520Z,101308.91
2022-12-05T12:01:42.888Z,101299.88
2022-12-05T12:04:42.120Z,101317.63
2022-12-05T12:07:40.730Z,101306.66
2022-12-05T12:10:34.212Z,101293.25
2022-12-05T12:13:31.881Z,101292.84
2022-12-05T12:16:23.519Z,101291.50
2022-12-05T12:19:22.440Z,101295.22
2022-12-05T12:22:23.271Z,101280.69
2022-12-05T12:25:28.593Z,101295.19
2022-12-05T12:28:29.519Z,101288.69
2022-12-05T12:31:48.786Z,101286.22
2022-12-05T12:34:54.417Z,101295.19
2022-12-05T12:37:47.844Z,101287.59
2022-12-05T12:40:41.674Z,101272.56
2022-12-05T12:43:53.721Z,101281.56
2022-12-05T12:46:51.225Z,101276.44
2022-12-05T12:49:53.918Z,101280.59
2022-12-05T12:52:54.986Z,101273.94
2022-12-05T12:55:45.820Z,101228.75
2022-12-05T12:58:45.634Z,101148.00
2022-12-05T13:01:38.857Z,101235.22
2022-12-05T13:04:29.895Z,101269.38
2022-12-05T13:07:19.222Z,101243.19
2022-12-05T13:10:12.838Z,101199.47
2022-12-05T13:12:59.709Z,101289.69
2022-12-05T13:15:48.023Z,101255.97
2022-12-05T13:18:32.145Z,101283.06
2022-12-05T13:21:18.610Z,101236.00
2022-12-05T13:24:03.891Z,101238.03
2022-12-05T13:26:51.146Z,101273.09
2022-12-05T13:29:37.988Z,101242.94
2022-12-05T13:32:33.673Z,101242.66
2022-12-05T13:35:40.079Z,101284.25
2022-12-05T13:38:47.637Z,101287.28
2022-12-05T13:41:59.722Z,101244.13
2022-12-05T13:44:46.667Z,101239.53
2022-12-05T13:47:34.963Z,101197.16
2022-12-05T13:50:24.076Z,101288.19
2022-12-05T13:53:25.376Z,101281.59
2022-12-05T13:56:29.261Z,101243.59
2022-12-05T13:59:13.194Z,101274.63
2022-12-05T14:01:57.222Z,101279.19
2022-12-05T14:04:53.396Z,101275.22
2022-12-05T14:07:43.667Z,101273.69
2022-12-05T14:11:13.026Z,101273.41
2022-12-05T14:14:03.992Z,101289.84
2022-12-05T14:16:53.165Z,101252.63
2022-12-05T14:20:01.568Z,101278.53
2022-12-05T14:23:14.041Z,101248.38
2022-12-05T14:26:20.154Z,101290.09
2022-12-05T14:29:20.431Z,101266.38
2022-12-05T14:32:14.382Z,101300.75
2022-12-05T14:35:03.473Z,101298.06
2022-12-05T14:37:54.829Z,101297.03
2022-12-05T14:40:41.341Z,101296.16
2022-12-05T14:43:32.985Z,101271.91
2022-12-05T14:46:23.350Z,101261.19
2022-12-05T14:49:53.047Z,101296.56
2022-12-05T14:52:38.838Z,101294.06
2022-12-05T14:55:26.903Z,101310.56
2022-12-05T14:58:19.684Z,101270.78
2022-12-05T15:01:09.259Z,101311.56
2022-12-05T15:04:09.518Z,101287.16
2022-12-05T15:06:57.330Z,101306.25
2022-12-05T15:10:04.087Z,101303.56
2022-12-05T15:12:51.033Z,101269.53
2022-12-05T15:15:39.022Z,101316.00
2022-12-05T15:18:29.748Z,101272.28
2022-12-05T15:21:23.268Z,101269.31
2022-12-05T15:24:13.828Z,101312.97
2022-12-05T15:27:00.041Z,101261.19
2022-12-05T15:29:44.734Z,101273.50
2022-12-05T15:32:29.587Z,101306.09
2022-12-05T15:35:17.547Z,101260.53
2022-12-05T15:38:09.456Z,101260.84
2022-12-05T15:40:53.354Z,101301.16
2022-12-05T15:43:37.814Z,101314.31
2022-12-05T15:46:24.526Z,101301.44
2022-12-05T15:49:18.480Z,101309.47
2022-12-05T15:52:25.788Z,101297.66
2022-12-05T15:55:15.261Z,101288.63
2022-12-05T15:58:09.656Z,101295.63
2022-12-05T16:01:02.607Z,101175.44
2022-12-05T16:03:52.452Z,101304.28
2022-12-05T16:06:40.503Z,101303.19
2022-12-05T16:09:29.850Z,101296.38
2022-12-05T16:12:28.369Z,101295.34
2022-12-05T16:15:16.298Z,101303.88
2022-12-05T16:18:02.133Z,101296.41
2022-12-05T16:20:47.181Z,101292.72
2022-12-05T16:23:33.278Z,101289.78
2022-12-05T16:26:22.978Z,101306.53
2022-12-05T16:29:07.014Z,101301.41
2022-12-05T16:31:56.587Z,101295.50
2022-12-05T16:34:40.437Z,101293.03
2022-12-05T16:37:27.495Z,101298.28
2022-12-05T16:40:22.445Z,101297.50
2022-12-05T16:43:18.412Z,101258.72
2022-12-05T16:46:43.101Z,101274.13
2022-12-05T16:49:34.972Z,101284.63
2022-12-05T16:52:18.843Z,101282.88
2022-12-05T16:55:02.688Z,101283.78
2022-12-05T16:57:47.392Z,101274.34
2022-12-05T17:00:33.423Z,101204.34
2022-12-05T17:03:33.867Z,101278.09
2022-12-05T17:06:19.529Z,101268.94
2022-12-05T17:09:03.388Z,101280.63
2022-12-05T17:11:49.059Z,101263.94
2022-12-05T17:14:32.963Z,101274.59
2022-12-05T17:17:19.178Z,101266.53
2022-12-05T17:20:03.208Z,101236.66
2022-12-05T17:22:47.774Z,101254.16
2022-12-05T17:25:36.454Z,101276.03
2022-12-05T17:28:20.750Z,101280.66
2022-12-05T17:31:04.550Z,101277.78
2022-12-05T17:33:51.589Z,101217.56
2022-12-05T17:36:35.334Z,101272.53
2022-12-05T17:39:22.427Z,101277.69
2022-12-05T17:42:10.367Z,101265.69
2022-12-05T17:44:54.356Z,101265.72
2022-12-05T17:47:38.290Z,101236.50
2022-12-05T17:50:24.858Z,101224.25
2022-12-05T17:53:14.561Z,101272.78
2022-12-05T17:55:58.448Z,101281.06
2022-12-05T17:58:43.346Z,101241.41
2022-12-05T18:01:27.609Z,101296.28
2022-12-05T18:04:11.657Z,101289.88
2022-12-05T18:06:57.112Z,101245.47
2022-12-05T18:09:40.886Z,101285.59
2022-12-05T18:12:26.441Z,101281.78
2022-12-05T18:15:11.061Z,101290.63
2022-12-05T18:17:55.626Z,101288.25
2022-12-05T18:20:39.457Z,101286.00
2022-12-05T18:23:24.813Z,101287.66
2022-12-05T18:26:10.527Z,101278.97
2022-12-05T18:28:56.854Z,101277.53
2022-12-05T18:31:42.845Z,101269.19
2022-12-05T18:34:26.925Z,101291.69
2022-12-05T18:37:11.578Z,101270.56
2022-12-05T18:39:57.524Z,101283.13
2022-12-05T18:42:41.353Z,101253.66
2022-12-05T18:45:25.155Z,101239.16
2022-12-05T18:48:23.769Z,101235.75
2022-12-05T18:51:14.763Z,101282.66
2022-12-05T18:53:59.097Z,101278.09
2022-12-05T18:56:46.111Z,101254.03
2022-12-05T18:59:30.862Z,101279.91
2022-12-05T19:02:15.176Z,101284.63
2022-12-05T19:04:59.201Z,101290.69
2022-12-05T19:07:43.192Z,101287.16
2022-12-05T19:10:27.105Z,101293.66
2022-12-05T19:13:12.236Z,101270.88
2022-12-05T19:16:02.458Z,101287.72
2022-12-05T19:18:46.925Z,101245.75
2022-12-05T19:21:32.555Z,101287.03
2022-12-05T19:24:20.006Z,101289.72
2022-12-05T19:27:04.062Z,101283.84
2022-12-05T19:29:49.450Z,101286.16
2022-12-05T19:32:36.923Z,101257.81
2022-12-05T19:35:23.980Z,101273.34
2022-12-05T19:38:07.888Z,101275.72
2022-12-05T19:40:57.124Z,101284.03
2022-12-05T19:43:43.152Z,101278.47
2022-12-05T19:46:30.269Z,101280.78
2022-12-05T19:49:15.911Z,101271.50
2022-12-05T19:51:59.838Z,101126.69
2022-12-05T19:54:43.690Z,101279.84
2022-12-05T19:57:31.220Z,101298.34
2022-12-05T20:00:19.063Z,101277.28
2022-12-05T20:03:07.790Z,101277.84
2022-12-05T20:05:59.425Z,101275.19
2022-12-05T20:08:43.522Z,101239.19
2022-12-05T20:11:29.292Z,101273.28
2022-12-05T20:14:14.586Z,101270.66
2022-12-05T20:16:58.517Z,101258.38
2022-12-05T20:19:43.876Z,101257.06
2022-12-05T20:22:31.030Z,101257.94
2022-12-05T20:25:14.863Z,101254.59
2022-12-05T20:27:58.716Z,101250.19
2022-12-05T20:30:42.759Z,101239.00
2022-12-05T20:33:26.523Z,101235.72
2022-12-05T20:36:13.932Z,101229.47
2022-12-05T20:38:59.363Z,101222.81
2022-12-05T20:41:43.166Z,101176.91
2022-12-05T20:44:26.880Z,101195.66
2022-12-05T20:47:10.671Z,101216.69
2022-12-05T20:49:54.605Z,101222.72
2022-12-05T20:52:45.162Z,101210.03
2022-12-05T20:55:31.217Z,101214.59
2022-12-05T20:58:15.098Z,101205.75
2022-12-05T21:01:00.135Z,101222.34
2022-12-05T21:03:45.840Z,101231.31
2022-12-05T21:06:31.869Z,101226.13
2022-12-05T21:09:26.469Z,101227.56
2022-12-05T21:12:10.752Z,101191.28
2022-12-05T21:14:54.831Z,101239.00
2022-12-05T21:17:38.954Z,101230.59
2022-12-05T21:20:23.201Z,101221.56
2022-12-05T21:23:07.129Z,101206.00
2022-12-05T21:25:52.343Z,101210.13
2022-12-05T21:28:36.659Z,101225.13
2022-12-05T21:31:22.866Z,101213.81
2022-12-05T21:34:08.445Z,101213.84
2022-12-05T21:36:52.542Z,101205.75
2022-12-05T21:39:36.765Z,101203.69
2022-12-05T21:42:21.948Z,101205.09
2022-12-05T21:45:06.311Z,101200.34
2022-12-05T21:47:52.483Z,101201.03
2022-12-05T21:50:38.829Z,101206.59
2022-12-05T21:53:22.938Z,101186.88
2022-12-05T21:56:10.956Z,101203.00
2022-12-05T21:58:56.344Z,101189.56
2022-12-05T22:01:40.234Z,101192.28
2022-12-05T22:04:24.442Z,101186.34
2022-12-05T22:07:08.563Z,101164.28
2022-12-05T22:09:52.761Z,101182.69
2022-12-05T22:12:36.790Z,101183.53
2022-12-05T22:15:22.415Z,101189.25
2022-12-05T22:18:06.802Z,101188.69
2022-12-05T22:20:57.046Z,101187.03
2022-12-05T22:23:41.149Z,101177.97
2022-12-05T22:26:27.392Z,101168.75
2022-12-05T22:29:11.556Z,101168.97
2022-12-05T22:31:58.873Z,101123.53
2022-12-05T22:34:42.873Z,101124.09
2022-12-05T22:37:27.130Z,101161.28
2022-12-05T22:40:12.506Z,101156.16
2022-12-05T22:42:56.680Z,101113.56
2022-12-05T22:45:40.659Z,101122.19
2022-12-05T22:48:27.534Z,101151.34
2022-12-05T22:51:11.701Z,101129.44
2022-12-05T22:53:55.563Z,101125.63
2022-12-05T22:56:39.616Z,101143.13
2022-12-05T22:59:23.548Z,101134.72
2022-12-05T23:02:07.343Z,101110.66
2022-12-05T23:04:52.518Z,101132.94
2022-12-05T23:07:36.283Z,101123.75
2022-12-05T23:10:20.220Z,101117.63
2022-12-05T23:13:03.909Z,101142.88
2022-12-05T23:15:47.665Z,101127.38
2022-12-05T23:18:31.570Z,101124.03
2022-12-05T23:21:20.102Z,101102.22
2022-12-05T23:24:06.703Z,101111.44
2022-12-05T23:26:50.482Z,101112.63
2022-12-05T23:29:34.296Z,101111.66
2022-12-05T23:32:18.056Z,101116.06
2022-12-05T23:35:01.928Z,101110.00
2022-12-05T23:37:48.777Z,101127.75
2022-12-05T23:40:32.531Z,101106.75
2022-12-05T23:43:16.264Z,101112.09
2022-12-05T23:46:00.751Z,101116.66
2022-12-05T23:48:44.849Z,101112.00
2022-12-05T23:51:30.113Z,101108.69
2022-12-05T23:54:15.200Z,101097.59
2022-12-05T23:56:58.958Z,101114.03
2022-12-05T23:59:42.808Z,101106.22
